Delphos, Ohio
Current Conditions -  °F | °C
As of 4:53 PM on Monday 22 Dec 2014 (Local Time) from KAOH Reporting Station
Haze Haze  
Wind Chill: 36°   Ceiling: Unl
Heat Index: 41°   Visibility: 5mi
Dew Point: 33°   Wind: 8mph
Humidity: 73%   Direction: 100°E
Pressure: 29.84"   Gusts: NA
Location:  40.84°N, 84.34°W
Report Text: KAOH 222153Z AUTO 10007KT 5SM HZ CLR 05/01 A2984 RMK AO2 SLP114 T00500006
Loading
Personal Weather Stations






























Interactive Weather Map New forecast layout! Learn more

10-Day Weather Forecast

Advertisements
Track Severe Weather on mobile